sensor_id;sensor_type;location;lat;lon;timestamp;P1;durP1;ratioP1;P2;durP2;ratioP2
22752;SDS011;11543;43.144;24.684;2022-09-09T00:00:23;6.70;;;4.65;;
22752;SDS011;11543;43.144;24.684;2022-09-09T00:05:35;7.38;;;4.85;;
22752;SDS011;11543;43.144;24.684;2022-09-09T00:08:08;6.13;;;4.80;;
22752;SDS011;11543;43.144;24.684;2022-09-09T00:10:44;7.22;;;4.53;;
22752;SDS011;11543;43.144;24.684;2022-09-09T00:13:28;10.95;;;5.28;;
22752;SDS011;11543;43.144;24.684;2022-09-09T00:21:38;9.20;;;6.70;;
22752;SDS011;11543;43.144;24.684;2022-09-09T00:25:10;11.13;;;5.60;;
22752;SDS011;11543;43.144;24.684;2022-09-09T00:27:39;7.32;;;5.32;;
22752;SDS011;11543;43.144;24.684;2022-09-09T00:30:25;8.50;;;5.55;;
22752;SDS011;11543;43.144;24.684;2022-09-09T00:33:08;6.07;;;5.43;;
22752;SDS011;11543;43.144;24.684;2022-09-09T00:35:41;8.10;;;5.22;;
22752;SDS011;11543;43.144;24.684;2022-09-09T00:38:11;6.13;;;5.53;;
22752;SDS011;11543;43.144;24.684;2022-09-09T00:40:53;7.28;;;5.05;;
22752;SDS011;11543;43.144;24.684;2022-09-09T00:43:30;7.50;;;5.22;;
22752;SDS011;11543;43.144;24.684;2022-09-09T00:46:27;6.50;;;5.03;;
22752;SDS011;11543;43.144;24.684;2022-09-09T00:54:40;10.60;;;5.72;;
22752;SDS011;11543;43.144;24.684;2022-09-09T00:57:23;8.50;;;5.22;;
22752;SDS011;11543;43.144;24.684;2022-09-09T01:05:27;7.20;;;4.95;;
22752;SDS011;11543;43.144;24.684;2022-09-09T01:08:01;9.73;;;4.85;;
22752;SDS011;11543;43.144;24.684;2022-09-09T01:10:46;5.43;;;4.47;;
22752;SDS011;11543;43.144;24.684;2022-09-09T01:13:19;6.75;;;4.97;;
22752;SDS011;11543;43.144;24.684;2022-09-09T01:15:56;8.52;;;4.70;;
22752;SDS011;11543;43.144;24.684;2022-09-09T01:18:26;6.63;;;4.88;;
22752;SDS011;11543;43.144;24.684;2022-09-09T01:20:59;6.68;;;4.80;;
22752;SDS011;11543;43.144;24.684;2022-09-09T01:29:11;7.07;;;4.55;;
22752;SDS011;11543;43.144;24.684;2022-09-09T01:31:40;7.43;;;4.80;;
22752;SDS011;11543;43.144;24.684;2022-09-09T01:34:12;5.38;;;4.47;;
22752;SDS011;11543;43.144;24.684;2022-09-09T01:39:24;7.82;;;4.93;;
22752;SDS011;11543;43.144;24.684;2022-09-09T01:41:51;7.78;;;4.75;;
22752;SDS011;11543;43.144;24.684;2022-09-09T01:44:18;6.50;;;4.38;;
22752;SDS011;11543;43.144;24.684;2022-09-09T01:46:44;8.85;;;4.70;;
22752;SDS011;11543;43.144;24.684;2022-09-09T01:49:10;8.02;;;4.80;;
22752;SDS011;11543;43.144;24.684;2022-09-09T01:51:36;7.75;;;4.88;;
22752;SDS011;11543;43.144;24.684;2022-09-09T01:54:03;8.70;;;5.00;;
22752;SDS011;11543;43.144;24.684;2022-09-09T02:02:11;7.80;;;4.57;;
22752;SDS011;11543;43.144;24.684;2022-09-09T02:09:58;6.25;;;5.07;;
22752;SDS011;11543;43.144;24.684;2022-09-09T02:12:30;7.90;;;4.80;;
22752;SDS011;11543;43.144;24.684;2022-09-09T02:14:59;5.22;;;4.70;;
22752;SDS011;11543;43.144;24.684;2022-09-09T02:17:36;7.20;;;4.82;;
22752;SDS011;11543;43.144;24.684;2022-09-09T02:20:10;9.70;;;4.80;;
22752;SDS011;11543;43.144;24.684;2022-09-09T02:22:39;6.32;;;4.90;;
22752;SDS011;11543;43.144;24.684;2022-09-09T02:25:10;6.22;;;4.85;;
22752;SDS011;11543;43.144;24.684;2022-09-09T02:27:40;8.85;;;5.00;;
22752;SDS011;11543;43.144;24.684;2022-09-09T02:30:10;6.18;;;4.95;;
22752;SDS011;11543;43.144;24.684;2022-09-09T02:32:36;6.70;;;4.80;;
22752;SDS011;11543;43.144;24.684;2022-09-09T02:35:11;4.78;;;4.13;;
22752;SDS011;11543;43.144;24.684;2022-09-09T02:37:41;6.30;;;4.30;;
22752;SDS011;11543;43.144;24.684;2022-09-09T02:40:09;7.57;;;4.80;;
22752;SDS011;11543;43.144;24.684;2022-09-09T02:42:47;9.00;;;5.03;;
22752;SDS011;11543;43.144;24.684;2022-09-09T02:45:24;7.68;;;4.50;;
22752;SDS011;11543;43.144;24.684;2022-09-09T02:48:09;5.65;;;4.55;;
22752;SDS011;11543;43.144;24.684;2022-09-09T02:50:51;7.00;;;4.63;;
22752;SDS011;11543;43.144;24.684;2022-09-09T02:53:24;7.32;;;4.78;;
22752;SDS011;11543;43.144;24.684;2022-09-09T02:56:00;6.93;;;5.10;;
22752;SDS011;11543;43.144;24.684;2022-09-09T02:58:34;9.88;;;5.15;;
22752;SDS011;11543;43.144;24.684;2022-09-09T03:01:00;6.57;;;4.93;;
22752;SDS011;11543;43.144;24.684;2022-09-09T03:03:27;5.68;;;4.30;;
22752;SDS011;11543;43.144;24.684;2022-09-09T03:05:54;8.48;;;4.80;;
22752;SDS011;11543;43.144;24.684;2022-09-09T03:08:19;6.93;;;4.78;;
22752;SDS011;11543;43.144;24.684;2022-09-09T03:10:45;6.53;;;5.03;;
22752;SDS011;11543;43.144;24.684;2022-09-09T03:13:10;7.68;;;5.40;;
22752;SDS011;11543;43.144;24.684;2022-09-09T03:15:37;5.55;;;4.70;;
22752;SDS011;11543;43.144;24.684;2022-09-09T03:18:03;6.75;;;5.07;;
22752;SDS011;11543;43.144;24.684;2022-09-09T03:20:29;8.13;;;4.95;;
22752;SDS011;11543;43.144;24.684;2022-09-09T03:22:55;8.77;;;4.88;;
22752;SDS011;11543;43.144;24.684;2022-09-09T03:25:22;8.02;;;4.75;;
22752;SDS011;11543;43.144;24.684;2022-09-09T03:27:49;8.65;;;4.80;;
22752;SDS011;11543;43.144;24.684;2022-09-09T03:30:15;6.47;;;4.65;;
22752;SDS011;11543;43.144;24.684;2022-09-09T03:32:40;8.00;;;4.80;;
22752;SDS011;11543;43.144;24.684;2022-09-09T03:35:06;7.35;;;4.85;;
22752;SDS011;11543;43.144;24.684;2022-09-09T03:37:32;6.75;;;4.75;;
22752;SDS011;11543;43.144;24.684;2022-09-09T03:39:58;7.45;;;4.80;;
22752;SDS011;11543;43.144;24.684;2022-09-09T03:42:25;6.97;;;4.60;;
22752;SDS011;11543;43.144;24.684;2022-09-09T03:44:50;7.88;;;4.35;;
22752;SDS011;11543;43.144;24.684;2022-09-09T03:47:19;11.52;;;4.68;;
22752;SDS011;11543;43.144;24.684;2022-09-09T03:49:55;7.68;;;4.80;;
22752;SDS011;11543;43.144;24.684;2022-09-09T03:52:20;7.57;;;4.75;;
22752;SDS011;11543;43.144;24.684;2022-09-09T03:54:49;7.07;;;4.40;;
22752;SDS011;11543;43.144;24.684;2022-09-09T03:57:15;4.95;;;4.20;;
22752;SDS011;11543;43.144;24.684;2022-09-09T03:59:42;5.97;;;4.10;;
22752;SDS011;11543;43.144;24.684;2022-09-09T04:02:07;6.13;;;4.53;;
22752;SDS011;11543;43.144;24.684;2022-09-09T04:04:34;5.97;;;4.25;;
22752;SDS011;11543;43.144;24.684;2022-09-09T04:07:00;4.80;;;4.25;;
22752;SDS011;11543;43.144;24.684;2022-09-09T04:09:25;8.68;;;4.65;;
22752;SDS011;11543;43.144;24.684;2022-09-09T04:11:51;7.13;;;4.50;;
22752;SDS011;11543;43.144;24.684;2022-09-09T04:14:18;6.72;;;4.68;;
22752;SDS011;11543;43.144;24.684;2022-09-09T04:16:44;6.95;;;4.43;;
22752;SDS011;11543;43.144;24.684;2022-09-09T04:19:11;6.22;;;4.70;;
22752;SDS011;11543;43.144;24.684;2022-09-09T04:21:40;8.13;;;4.60;;
22752;SDS011;11543;43.144;24.684;2022-09-09T04:24:07;9.73;;;5.03;;
22752;SDS011;11543;43.144;24.684;2022-09-09T04:26:33;8.50;;;4.50;;
22752;SDS011;11543;43.144;24.684;2022-09-09T04:29:01;7.00;;;4.65;;
22752;SDS011;11543;43.144;24.684;2022-09-09T04:31:27;8.07;;;4.50;;
22752;SDS011;11543;43.144;24.684;2022-09-09T04:33:53;5.38;;;4.65;;
22752;SDS011;11543;43.144;24.684;2022-09-09T04:36:18;10.98;;;4.75;;
22752;SDS011;11543;43.144;24.684;2022-09-09T04:38:44;7.05;;;4.63;;
22752;SDS011;11543;43.144;24.684;2022-09-09T04:41:11;11.15;;;5.22;;
22752;SDS011;11543;43.144;24.684;2022-09-09T04:43:37;7.68;;;4.40;;
22752;SDS011;11543;43.144;24.684;2022-09-09T04:46:04;9.98;;;4.90;;
22752;SDS011;11543;43.144;24.684;2022-09-09T04:48:30;6.82;;;4.53;;
22752;SDS011;11543;43.144;24.684;2022-09-09T04:53:26;5.90;;;4.97;;
22752;SDS011;11543;43.144;24.684;2022-09-09T04:56:05;8.85;;;4.82;;
22752;SDS011;11543;43.144;24.684;2022-09-09T04:58:39;5.88;;;4.80;;
22752;SDS011;11543;43.144;24.684;2022-09-09T05:01:11;9.35;;;5.05;;
22752;SDS011;11543;43.144;24.684;2022-09-09T05:03:42;8.45;;;4.72;;
22752;SDS011;11543;43.144;24.684;2022-09-09T05:06:11;7.88;;;4.65;;
22752;SDS011;11543;43.144;24.684;2022-09-09T05:08:38;7.60;;;4.43;;
22752;SDS011;11543;43.144;24.684;2022-09-09T05:11:17;6.18;;;4.38;;
22752;SDS011;11543;43.144;24.684;2022-09-09T05:13:46;7.25;;;4.13;;
22752;SDS011;11543;43.144;24.684;2022-09-09T05:16:12;10.88;;;4.50;;
22752;SDS011;11543;43.144;24.684;2022-09-09T05:18:39;4.70;;;4.18;;
22752;SDS011;11543;43.144;24.684;2022-09-09T05:21:05;7.40;;;4.30;;
22752;SDS011;11543;43.144;24.684;2022-09-09T05:23:31;10.13;;;4.40;;
22752;SDS011;11543;43.144;24.684;2022-09-09T05:25:59;7.45;;;4.40;;
22752;SDS011;11543;43.144;24.684;2022-09-09T05:28:25;8.88;;;4.22;;
22752;SDS011;11543;43.144;24.684;2022-09-09T05:30:58;10.27;;;4.80;;
22752;SDS011;11543;43.144;24.684;2022-09-09T05:33:25;14.07;;;4.75;;
22752;SDS011;11543;43.144;24.684;2022-09-09T05:35:58;8.80;;;4.70;;
22752;SDS011;11543;43.144;24.684;2022-09-09T05:38:24;12.23;;;4.93;;
22752;SDS011;11543;43.144;24.684;2022-09-09T05:40:51;9.30;;;5.18;;
22752;SDS011;11543;43.144;24.684;2022-09-09T05:43:18;8.35;;;4.90;;
22752;SDS011;11543;43.144;24.684;2022-09-09T05:45:45;14.93;;;5.55;;
22752;SDS011;11543;43.144;24.684;2022-09-09T05:48:13;9.77;;;5.47;;
22752;SDS011;11543;43.144;24.684;2022-09-09T05:50:41;10.70;;;5.15;;
22752;SDS011;11543;43.144;24.684;2022-09-09T05:53:08;8.32;;;5.05;;
22752;SDS011;11543;43.144;24.684;2022-09-09T05:55:34;14.00;;;8.15;;
22752;SDS011;11543;43.144;24.684;2022-09-09T05:58:00;12.15;;;8.50;;
22752;SDS011;11543;43.144;24.684;2022-09-09T06:00:26;13.27;;;5.05;;
22752;SDS011;11543;43.144;24.684;2022-09-09T06:02:52;7.05;;;5.03;;
22752;SDS011;11543;43.144;24.684;2022-09-09T06:05:19;8.07;;;4.20;;
22752;SDS011;11543;43.144;24.684;2022-09-09T06:07:45;10.82;;;4.22;;
22752;SDS011;11543;43.144;24.684;2022-09-09T06:10:11;11.70;;;4.88;;
22752;SDS011;11543;43.144;24.684;2022-09-09T06:12:39;5.45;;;4.03;;
22752;SDS011;11543;43.144;24.684;2022-09-09T06:15:04;6.97;;;4.28;;
22752;SDS011;11543;43.144;24.684;2022-09-09T06:17:30;8.60;;;4.53;;
22752;SDS011;11543;43.144;24.684;2022-09-09T06:19:56;8.10;;;4.57;;
22752;SDS011;11543;43.144;24.684;2022-09-09T06:22:22;8.07;;;4.38;;
22752;SDS011;11543;43.144;24.684;2022-09-09T06:24:49;9.18;;;4.32;;
22752;SDS011;11543;43.144;24.684;2022-09-09T06:27:16;8.02;;;4.32;;
22752;SDS011;11543;43.144;24.684;2022-09-09T06:29:41;8.55;;;4.25;;
22752;SDS011;11543;43.144;24.684;2022-09-09T06:32:07;14.63;;;4.40;;
22752;SDS011;11543;43.144;24.684;2022-09-09T06:34:34;11.00;;;4.07;;
22752;SDS011;11543;43.144;24.684;2022-09-09T06:37:00;7.05;;;4.20;;
22752;SDS011;11543;43.144;24.684;2022-09-09T06:39:26;9.32;;;4.13;;
22752;SDS011;11543;43.144;24.684;2022-09-09T06:41:51;7.60;;;3.80;;
22752;SDS011;11543;43.144;24.684;2022-09-09T06:44:18;11.15;;;4.28;;
22752;SDS011;11543;43.144;24.684;2022-09-09T06:46:44;9.27;;;3.65;;
22752;SDS011;11543;43.144;24.684;2022-09-09T06:49:13;8.05;;;3.65;;
22752;SDS011;11543;43.144;24.684;2022-09-09T06:51:39;11.98;;;3.75;;
22752;SDS011;11543;43.144;24.684;2022-09-09T06:54:07;13.05;;;3.85;;
22752;SDS011;11543;43.144;24.684;2022-09-09T06:56:37;6.18;;;3.70;;
22752;SDS011;11543;43.144;24.684;2022-09-09T06:59:07;8.95;;;3.50;;
22752;SDS011;11543;43.144;24.684;2022-09-09T07:01:34;9.75;;;3.90;;
22752;SDS011;11543;43.144;24.684;2022-09-09T07:04:08;7.82;;;3.63;;
22752;SDS011;11543;43.144;24.684;2022-09-09T07:06:45;9.52;;;3.42;;
22752;SDS011;11543;43.144;24.684;2022-09-09T07:09:14;9.38;;;3.58;;
22752;SDS011;11543;43.144;24.684;2022-09-09T07:11:45;8.15;;;3.38;;
22752;SDS011;11543;43.144;24.684;2022-09-09T07:14:12;8.73;;;3.17;;
22752;SDS011;11543;43.144;24.684;2022-09-09T07:16:42;6.65;;;3.33;;
22752;SDS011;11543;43.144;24.684;2022-09-09T07:19:09;8.00;;;3.55;;
22752;SDS011;11543;43.144;24.684;2022-09-09T07:21:39;10.52;;;4.22;;
22752;SDS011;11543;43.144;24.684;2022-09-09T07:24:05;13.88;;;5.30;;
22752;SDS011;11543;43.144;24.684;2022-09-09T07:26:35;9.75;;;4.28;;
22752;SDS011;11543;43.144;24.684;2022-09-09T07:29:01;10.82;;;4.30;;
22752;SDS011;11543;43.144;24.684;2022-09-09T07:31:28;7.57;;;4.00;;
22752;SDS011;11543;43.144;24.684;2022-09-09T07:33:55;9.25;;;3.30;;
22752;SDS011;11543;43.144;24.684;2022-09-09T07:36:32;7.63;;;3.42;;
22752;SDS011;11543;43.144;24.684;2022-09-09T07:38:59;10.50;;;3.45;;
22752;SDS011;11543;43.144;24.684;2022-09-09T07:41:34;6.47;;;3.58;;
22752;SDS011;11543;43.144;24.684;2022-09-09T07:44:06;7.75;;;3.38;;
22752;SDS011;11543;43.144;24.684;2022-09-09T07:46:33;7.53;;;2.85;;
22752;SDS011;11543;43.144;24.684;2022-09-09T07:48:59;8.05;;;3.30;;
22752;SDS011;11543;43.144;24.684;2022-09-09T07:51:26;7.32;;;2.97;;
22752;SDS011;11543;43.144;24.684;2022-09-09T07:53:58;6.97;;;3.00;;
22752;SDS011;11543;43.144;24.684;2022-09-09T07:56:25;8.55;;;3.67;;
22752;SDS011;11543;43.144;24.684;2022-09-09T07:58:53;8.15;;;3.40;;
22752;SDS011;11543;43.144;24.684;2022-09-09T08:01:21;11.30;;;3.08;;
22752;SDS011;11543;43.144;24.684;2022-09-09T08:03:53;14.27;;;3.10;;
22752;SDS011;11543;43.144;24.684;2022-09-09T08:06:22;5.65;;;3.40;;
22752;SDS011;11543;43.144;24.684;2022-09-09T08:08:52;9.87;;;3.40;;
22752;SDS011;11543;43.144;24.684;2022-09-09T08:11:18;7.13;;;3.30;;
22752;SDS011;11543;43.144;24.684;2022-09-09T08:13:44;7.18;;;2.97;;
22752;SDS011;11543;43.144;24.684;2022-09-09T08:16:15;7.20;;;3.17;;
22752;SDS011;11543;43.144;24.684;2022-09-09T08:18:42;5.35;;;2.80;;
22752;SDS011;11543;43.144;24.684;2022-09-09T08:21:09;8.43;;;3.55;;
22752;SDS011;11543;43.144;24.684;2022-09-09T08:23:39;10.68;;;3.42;;
22752;SDS011;11543;43.144;24.684;2022-09-09T08:26:16;7.35;;;2.95;;
22752;SDS011;11543;43.144;24.684;2022-09-09T08:28:53;9.23;;;3.58;;
22752;SDS011;11543;43.144;24.684;2022-09-09T08:31:21;6.30;;;2.95;;
22752;SDS011;11543;43.144;24.684;2022-09-09T08:33:49;11.88;;;3.47;;
22752;SDS011;11543;43.144;24.684;2022-09-09T08:36:15;7.07;;;3.20;;
22752;SDS011;11543;43.144;24.684;2022-09-09T08:38:47;7.97;;;2.70;;
22752;SDS011;11543;43.144;24.684;2022-09-09T08:43:51;6.90;;;2.65;;
22752;SDS011;11543;43.144;24.684;2022-09-09T08:46:54;9.52;;;3.35;;
22752;SDS011;11543;43.144;24.684;2022-09-09T09:09:21;10.25;;;3.83;;
22752;SDS011;11543;43.144;24.684;2022-09-09T09:12:11;7.93;;;3.03;;
22752;SDS011;11543;43.144;24.684;2022-09-09T09:14:47;11.48;;;3.00;;
22752;SDS011;11543;43.144;24.684;2022-09-09T09:17:14;12.93;;;3.33;;
22752;SDS011;11543;43.144;24.684;2022-09-09T09:19:47;9.80;;;3.10;;
22752;SDS011;11543;43.144;24.684;2022-09-09T09:22:21;9.10;;;3.42;;
22752;SDS011;11543;43.144;24.684;2022-09-09T09:27:32;5.90;;;3.00;;
22752;SDS011;11543;43.144;24.684;2022-09-09T09:30:13;6.82;;;3.03;;
22752;SDS011;11543;43.144;24.684;2022-09-09T09:32:40;6.45;;;2.70;;
22752;SDS011;11543;43.144;24.684;2022-09-09T09:35:16;7.53;;;2.80;;
22752;SDS011;11543;43.144;24.684;2022-09-09T09:37:41;7.65;;;3.05;;
22752;SDS011;11543;43.144;24.684;2022-09-09T09:40:12;10.52;;;3.10;;
22752;SDS011;11543;43.144;24.684;2022-09-09T09:42:53;7.35;;;2.92;;
22752;SDS011;11543;43.144;24.684;2022-09-09T09:45:27;6.60;;;3.13;;
22752;SDS011;11543;43.144;24.684;2022-09-09T09:48:12;6.07;;;2.80;;
22752;SDS011;11543;43.144;24.684;2022-09-09T09:53:18;8.30;;;3.25;;
22752;SDS011;11543;43.144;24.684;2022-09-09T09:55:50;10.20;;;2.80;;
22752;SDS011;11543;43.144;24.684;2022-09-09T09:58:19;13.98;;;2.92;;
22752;SDS011;11543;43.144;24.684;2022-09-09T10:00:49;7.43;;;2.80;;
22752;SDS011;11543;43.144;24.684;2022-09-09T10:03:23;9.70;;;3.00;;
22752;SDS011;11543;43.144;24.684;2022-09-09T10:05:50;13.00;;;3.00;;
22752;SDS011;11543;43.144;24.684;2022-09-09T10:08:16;7.43;;;2.78;;
22752;SDS011;11543;43.144;24.684;2022-09-09T10:13:38;9.15;;;2.90;;
22752;SDS011;11543;43.144;24.684;2022-09-09T10:18:59;6.65;;;2.75;;
22752;SDS011;11543;43.144;24.684;2022-09-09T10:30:14;8.75;;;3.08;;
22752;SDS011;11543;43.144;24.684;2022-09-09T10:37:53;7.13;;;2.90;;
22752;SDS011;11543;43.144;24.684;2022-09-09T10:40:32;9.27;;;3.05;;
22752;SDS011;11543;43.144;24.684;2022-09-09T10:43:03;6.72;;;2.70;;
22752;SDS011;11543;43.144;24.684;2022-09-09T10:48:22;9.98;;;3.17;;
22752;SDS011;11543;43.144;24.684;2022-09-09T10:53:42;8.88;;;3.10;;
22752;SDS011;11543;43.144;24.684;2022-09-09T10:56:22;10.23;;;3.20;;
22752;SDS011;11543;43.144;24.684;2022-09-09T10:58:56;7.07;;;3.10;;
22752;SDS011;11543;43.144;24.684;2022-09-09T11:01:25;7.95;;;2.95;;
22752;SDS011;11543;43.144;24.684;2022-09-09T11:04:00;10.50;;;3.50;;
22752;SDS011;11543;43.144;24.684;2022-09-09T11:06:37;7.22;;;2.92;;
22752;SDS011;11543;43.144;24.684;2022-09-09T11:09:08;5.40;;;2.85;;
22752;SDS011;11543;43.144;24.684;2022-09-09T11:11:45;7.57;;;3.00;;
22752;SDS011;11543;43.144;24.684;2022-09-09T11:14:41;7.20;;;3.55;;
22752;SDS011;11543;43.144;24.684;2022-09-09T11:17:10;11.85;;;3.17;;
22752;SDS011;11543;43.144;24.684;2022-09-09T11:19:41;7.45;;;2.90;;
22752;SDS011;11543;43.144;24.684;2022-09-09T11:25:03;10.85;;;3.13;;
22752;SDS011;11543;43.144;24.684;2022-09-09T11:27:37;7.65;;;3.00;;
22752;SDS011;11543;43.144;24.684;2022-09-09T11:30:29;8.23;;;3.22;;
22752;SDS011;11543;43.144;24.684;2022-09-09T11:36:00;5.15;;;3.17;;
22752;SDS011;11543;43.144;24.684;2022-09-09T11:38:52;7.65;;;3.30;;
22752;SDS011;11543;43.144;24.684;2022-09-09T11:41:22;6.45;;;3.10;;
22752;SDS011;11543;43.144;24.684;2022-09-09T11:43:48;7.10;;;3.20;;
22752;SDS011;11543;43.144;24.684;2022-09-09T11:46:31;8.73;;;3.25;;
22752;SDS011;11543;43.144;24.684;2022-09-09T11:49:04;7.63;;;3.08;;
22752;SDS011;11543;43.144;24.684;2022-09-09T11:51:32;7.93;;;2.90;;
22752;SDS011;11543;43.144;24.684;2022-09-09T11:54:26;8.45;;;2.97;;
22752;SDS011;11543;43.144;24.684;2022-09-09T11:56:57;8.02;;;3.40;;
22752;SDS011;11543;43.144;24.684;2022-09-09T11:59:27;11.00;;;3.40;;
22752;SDS011;11543;43.144;24.684;2022-09-09T12:06:51;8.38;;;3.60;;
22752;SDS011;11543;43.144;24.684;2022-09-09T12:19:41;8.90;;;3.10;;
22752;SDS011;11543;43.144;24.684;2022-09-09T12:22:56;9.05;;;3.00;;
22752;SDS011;11543;43.144;24.684;2022-09-09T12:25:07;7.13;;;3.22;;
22752;SDS011;11543;43.144;24.684;2022-09-09T12:30:12;9.32;;;3.10;;
22752;SDS011;11543;43.144;24.684;2022-09-09T12:32:40;7.28;;;3.10;;
22752;SDS011;11543;43.144;24.684;2022-09-09T12:37:50;7.25;;;3.17;;
22752;SDS011;11543;43.144;24.684;2022-09-09T12:40:31;9.02;;;3.53;;
22752;SDS011;11543;43.144;24.684;2022-09-09T12:43:00;7.43;;;3.40;;
22752;SDS011;11543;43.144;24.684;2022-09-09T12:45:28;7.95;;;3.55;;
22752;SDS011;11543;43.144;24.684;2022-09-09T12:48:00;11.88;;;3.30;;
22752;SDS011;11543;43.144;24.684;2022-09-09T12:50:29;10.00;;;3.58;;
22752;SDS011;11543;43.144;24.684;2022-09-09T12:52:58;7.88;;;3.33;;
22752;SDS011;11543;43.144;24.684;2022-09-09T12:55:30;7.22;;;3.58;;
22752;SDS011;11543;43.144;24.684;2022-09-09T12:58:01;11.02;;;3.78;;
22752;SDS011;11543;43.144;24.684;2022-09-09T13:00:30;7.15;;;3.53;;
22752;SDS011;11543;43.144;24.684;2022-09-09T13:02:57;9.70;;;3.53;;
22752;SDS011;11543;43.144;24.684;2022-09-09T13:05:34;4.68;;;3.60;;
22752;SDS011;11543;43.144;24.684;2022-09-09T13:08:06;6.72;;;4.03;;
22752;SDS011;11543;43.144;24.684;2022-09-09T13:10:41;11.90;;;4.25;;
22752;SDS011;11543;43.144;24.684;2022-09-09T13:13:15;7.82;;;3.92;;
22752;SDS011;11543;43.144;24.684;2022-09-09T13:15:49;12.40;;;3.70;;
22752;SDS011;11543;43.144;24.684;2022-09-09T13:18:21;8.02;;;4.00;;
22752;SDS011;11543;43.144;24.684;2022-09-09T13:20:49;10.95;;;4.13;;
22752;SDS011;11543;43.144;24.684;2022-09-09T13:23:15;13.20;;;4.00;;
22752;SDS011;11543;43.144;24.684;2022-09-09T13:25:59;10.05;;;4.15;;
22752;SDS011;11543;43.144;24.684;2022-09-09T13:28:27;9.50;;;4.38;;
22752;SDS011;11543;43.144;24.684;2022-09-09T13:31:01;10.40;;;4.32;;
22752;SDS011;11543;43.144;24.684;2022-09-09T13:33:37;9.45;;;4.00;;
22752;SDS011;11543;43.144;24.684;2022-09-09T13:36:04;9.50;;;4.00;;
22752;SDS011;11543;43.144;24.684;2022-09-09T13:38:53;12.32;;;4.35;;
22752;SDS011;11543;43.144;24.684;2022-09-09T13:41:32;9.93;;;4.25;;
22752;SDS011;11543;43.144;24.684;2022-09-09T13:44:04;6.93;;;4.25;;
22752;SDS011;11543;43.144;24.684;2022-09-09T13:46:35;9.10;;;4.00;;
22752;SDS011;11543;43.144;24.684;2022-09-09T13:51:49;10.95;;;4.28;;
22752;SDS011;11543;43.144;24.684;2022-09-09T13:54:19;10.10;;;4.45;;
22752;SDS011;11543;43.144;24.684;2022-09-09T13:56:46;8.15;;;4.47;;
22752;SDS011;11543;43.144;24.684;2022-09-09T13:59:13;8.13;;;4.20;;
22752;SDS011;11543;43.144;24.684;2022-09-09T14:01:40;9.20;;;4.45;;
22752;SDS011;11543;43.144;24.684;2022-09-09T14:04:06;11.05;;;4.80;;
22752;SDS011;11543;43.144;24.684;2022-09-09T14:06:34;7.32;;;4.30;;
22752;SDS011;11543;43.144;24.684;2022-09-09T14:09:02;9.65;;;4.88;;
22752;SDS011;11543;43.144;24.684;2022-09-09T14:11:28;13.07;;;4.85;;
22752;SDS011;11543;43.144;24.684;2022-09-09T14:13:53;14.55;;;5.18;;
22752;SDS011;11543;43.144;24.684;2022-09-09T14:16:19;9.45;;;4.28;;
22752;SDS011;11543;43.144;24.684;2022-09-09T14:18:46;11.43;;;4.95;;
22752;SDS011;11543;43.144;24.684;2022-09-09T14:21:12;14.30;;;4.15;;
22752;SDS011;11543;43.144;24.684;2022-09-09T14:23:39;10.60;;;4.25;;
22752;SDS011;11543;43.144;24.684;2022-09-09T14:26:05;13.00;;;4.30;;
22752;SDS011;11543;43.144;24.684;2022-09-09T14:28:31;12.73;;;4.20;;
22752;SDS011;11543;43.144;24.684;2022-09-09T14:31:01;9.98;;;4.68;;
22752;SDS011;11543;43.144;24.684;2022-09-09T14:33:29;6.38;;;4.20;;
22752;SDS011;11543;43.144;24.684;2022-09-09T14:35:56;8.90;;;4.40;;
22752;SDS011;11543;43.144;24.684;2022-09-09T14:38:22;11.20;;;4.57;;
22752;SDS011;11543;43.144;24.684;2022-09-09T14:40:47;10.60;;;4.20;;
22752;SDS011;11543;43.144;24.684;2022-09-09T14:43:13;14.85;;;4.32;;
22752;SDS011;11543;43.144;24.684;2022-09-09T14:45:39;15.52;;;4.43;;
22752;SDS011;11543;43.144;24.684;2022-09-09T14:48:04;9.73;;;4.82;;
22752;SDS011;11543;43.144;24.684;2022-09-09T14:50:30;10.57;;;4.68;;
22752;SDS011;11543;43.144;24.684;2022-09-09T14:52:55;10.52;;;4.85;;
22752;SDS011;11543;43.144;24.684;2022-09-09T14:55:21;16.25;;;4.55;;
22752;SDS011;11543;43.144;24.684;2022-09-09T14:57:46;13.98;;;4.53;;
22752;SDS011;11543;43.144;24.684;2022-09-09T15:00:12;10.65;;;4.85;;
22752;SDS011;11543;43.144;24.684;2022-09-09T15:02:38;11.75;;;4.95;;
22752;SDS011;11543;43.144;24.684;2022-09-09T15:05:04;12.90;;;5.30;;
22752;SDS011;11543;43.144;24.684;2022-09-09T15:07:30;9.00;;;4.80;;
22752;SDS011;11543;43.144;24.684;2022-09-09T15:09:57;11.23;;;4.60;;
22752;SDS011;11543;43.144;24.684;2022-09-09T15:12:25;21.10;;;7.22;;
22752;SDS011;11543;43.144;24.684;2022-09-09T15:14:53;10.95;;;6.13;;
22752;SDS011;11543;43.144;24.684;2022-09-09T15:17:19;14.60;;;5.78;;
22752;SDS011;11543;43.144;24.684;2022-09-09T15:19:45;15.38;;;4.93;;
22752;SDS011;11543;43.144;24.684;2022-09-09T15:22:11;12.45;;;6.07;;
22752;SDS011;11543;43.144;24.684;2022-09-09T15:24:36;19.90;;;6.03;;
22752;SDS011;11543;43.144;24.684;2022-09-09T15:27:02;15.52;;;6.63;;
22752;SDS011;11543;43.144;24.684;2022-09-09T15:29:27;14.90;;;5.03;;
22752;SDS011;11543;43.144;24.684;2022-09-09T15:31:59;14.02;;;4.90;;
22752;SDS011;11543;43.144;24.684;2022-09-09T15:34:28;15.27;;;4.78;;
22752;SDS011;11543;43.144;24.684;2022-09-09T15:36:53;16.10;;;4.82;;
22752;SDS011;11543;43.144;24.684;2022-09-09T15:39:20;14.95;;;4.80;;
22752;SDS011;11543;43.144;24.684;2022-09-09T15:41:47;21.90;;;5.43;;
22752;SDS011;11543;43.144;24.684;2022-09-09T15:44:13;13.85;;;5.03;;
22752;SDS011;11543;43.144;24.684;2022-09-09T15:46:44;11.30;;;4.55;;
22752;SDS011;11543;43.144;24.684;2022-09-09T15:49:24;9.00;;;4.75;;
22752;SDS011;11543;43.144;24.684;2022-09-09T15:51:57;12.98;;;5.20;;
22752;SDS011;11543;43.144;24.684;2022-09-09T15:54:27;12.43;;;5.03;;
22752;SDS011;11543;43.144;24.684;2022-09-09T15:56:57;13.32;;;5.00;;
22752;SDS011;11543;43.144;24.684;2022-09-09T15:59:25;14.48;;;5.22;;
22752;SDS011;11543;43.144;24.684;2022-09-09T16:01:53;13.07;;;5.07;;
22752;SDS011;11543;43.144;24.684;2022-09-09T16:06:50;14.40;;;5.50;;
22752;SDS011;11543;43.144;24.684;2022-09-09T16:09:30;12.88;;;5.30;;
22752;SDS011;11543;43.144;24.684;2022-09-09T16:11:57;11.25;;;4.75;;
22752;SDS011;11543;43.144;24.684;2022-09-09T16:14:27;10.43;;;4.70;;
22752;SDS011;11543;43.144;24.684;2022-09-09T16:16:59;16.20;;;5.35;;
22752;SDS011;11543;43.144;24.684;2022-09-09T16:19:25;11.40;;;4.90;;
22752;SDS011;11543;43.144;24.684;2022-09-09T16:21:50;14.85;;;5.50;;
22752;SDS011;11543;43.144;24.684;2022-09-09T16:24:17;12.93;;;6.40;;
22752;SDS011;11543;43.144;24.684;2022-09-09T16:26:44;15.23;;;6.63;;
22752;SDS011;11543;43.144;24.684;2022-09-09T16:29:13;24.08;;;12.90;;
22752;SDS011;11543;43.144;24.684;2022-09-09T16:31:40;22.27;;;13.25;;
22752;SDS011;11543;43.144;24.684;2022-09-09T16:34:07;19.40;;;12.32;;
22752;SDS011;11543;43.144;24.684;2022-09-09T16:36:35;13.00;;;8.10;;
22752;SDS011;11543;43.144;24.684;2022-09-09T16:39:14;15.63;;;7.00;;
22752;SDS011;11543;43.144;24.684;2022-09-09T16:41:41;16.33;;;6.13;;
22752;SDS011;11543;43.144;24.684;2022-09-09T16:44:09;10.23;;;5.50;;
22752;SDS011;11543;43.144;24.684;2022-09-09T16:46:40;17.42;;;6.00;;
22752;SDS011;11543;43.144;24.684;2022-09-09T16:49:08;17.05;;;8.30;;
22752;SDS011;11543;43.144;24.684;2022-09-09T16:51:42;19.33;;;8.25;;
22752;SDS011;11543;43.144;24.684;2022-09-09T16:54:10;16.88;;;7.38;;